createdAt,value
2022-10-15T00:01:49.864Z,12.45
2022-10-15T00:04:17.947Z,9.90
2022-10-15T00:06:45.772Z,10.93
2022-10-15T00:09:13.690Z,11.43
2022-10-15T00:11:41.746Z,10.85
2022-10-15T00:14:11.456Z,10.85
2022-10-15T00:16:41.243Z,11.12
2022-10-15T00:19:10.432Z,10.78
2022-10-15T00:21:39.413Z,10.98
2022-10-15T00:24:08.267Z,9.68
2022-10-15T00:26:36.188Z,8.88
2022-10-15T00:29:04.950Z,7.90
2022-10-15T00:31:33.167Z,9.30
2022-10-15T00:34:02.733Z,8.80
2022-10-15T00:36:34.489Z,9.80
2022-10-15T00:39:04.811Z,9.00
2022-10-15T00:41:38.186Z,9.00
2022-10-15T00:44:29.469Z,11.33
2022-10-15T00:47:23.979Z,14.10
2022-10-15T00:50:08.870Z,15.55
2022-10-15T00:53:00.528Z,22.48
2022-10-15T00:55:35.039Z,20.37
2022-10-15T00:58:14.202Z,19.13
2022-10-15T01:00:42.760Z,14.87
2022-10-15T01:03:12.350Z,12.93
2022-10-15T01:05:40.805Z,12.82
2022-10-15T01:08:10.854Z,12.35
2022-10-15T01:11:04.767Z,10.35
2022-10-15T01:14:21.215Z,9.73
2022-10-15T01:17:06.793Z,8.98
2022-10-15T01:20:13.675Z,9.00
2022-10-15T01:23:08.326Z,11.35
2022-10-15T01:26:21.314Z,12.73
2022-10-15T01:29:04.942Z,21.25
2022-10-15T01:31:46.933Z,13.30
2022-10-15T01:34:25.832Z,14.25
2022-10-15T01:37:05.554Z,9.33
2022-10-15T01:39:40.542Z,8.95
2022-10-15T01:42:14.342Z,7.65
2022-10-15T01:44:52.928Z,7.20
2022-10-15T01:47:33.861Z,6.60
2022-10-15T01:50:40.971Z,6.90
2022-10-15T01:56:09.678Z,6.60
2022-10-15T01:58:41.954Z,6.62
2022-10-15T02:01:10.307Z,6.60
2022-10-15T02:03:51.284Z,6.75
2022-10-15T02:25:42.008Z,10.50
2022-10-15T02:28:20.402Z,10.53
2022-10-15T02:30:53.148Z,9.68
2022-10-15T02:33:39.483Z,9.28
2022-10-15T02:36:11.535Z,10.28
2022-10-15T02:38:43.051Z,11.93
2022-10-15T02:41:12.500Z,11.30
2022-10-15T02:43:41.906Z,10.65
2022-10-15T02:46:14.395Z,12.05
2022-10-15T02:48:43.012Z,14.23
2022-10-15T02:51:10.903Z,16.12
2022-10-15T02:53:39.430Z,16.15
2022-10-15T02:56:07.634Z,17.60
2022-10-15T02:58:35.889Z,17.27
2022-10-15T03:01:04.895Z,15.43
2022-10-15T03:03:32.468Z,14.30
2022-10-15T03:06:00.530Z,10.65
2022-10-15T03:08:29.565Z,9.00
2022-10-15T03:11:02.821Z,6.97
2022-10-15T03:13:30.910Z,7.00
2022-10-15T03:15:58.809Z,6.58
2022-10-15T03:18:26.633Z,6.67
2022-10-15T03:20:58.181Z,6.53
2022-10-15T03:23:27.376Z,5.75
2022-10-15T03:25:57.178Z,7.90
2022-10-15T03:28:25.540Z,6.47
2022-10-15T03:30:53.595Z,5.90
2022-10-15T03:33:23.163Z,6.08
2022-10-15T03:35:52.195Z,5.97
2022-10-15T03:38:20.136Z,6.33
2022-10-15T03:40:48.770Z,6.25
2022-10-15T03:43:21.775Z,6.08
2022-10-15T03:45:49.879Z,6.22
2022-10-15T03:48:20.108Z,6.55
2022-10-15T03:50:48.401Z,7.53
2022-10-15T03:53:16.480Z,7.20
2022-10-15T03:55:44.314Z,7.37
2022-10-15T03:58:12.083Z,7.20
2022-10-15T04:00:43.314Z,7.87
2022-10-15T04:03:11.512Z,7.22
2022-10-15T04:05:39.282Z,7.50
2022-10-15T04:08:08.430Z,7.97
2022-10-15T04:10:37.922Z,13.68
2022-10-15T04:13:05.622Z,13.43
2022-10-15T04:15:33.979Z,13.20
2022-10-15T04:18:03.620Z,13.93
2022-10-15T04:20:31.593Z,12.85
2022-10-15T04:23:01.445Z,11.50
2022-10-15T04:25:29.566Z,11.73
2022-10-15T04:28:03.133Z,11.08
2022-10-15T04:30:33.285Z,11.57
2022-10-15T04:33:01.710Z,11.68
2022-10-15T04:35:29.777Z,11.48
2022-10-15T04:37:59.189Z,11.53
2022-10-15T04:40:28.769Z,11.78
2022-10-15T04:42:57.287Z,11.40
2022-10-15T04:45:26.055Z,11.50
2022-10-15T04:47:56.815Z,13.55
2022-10-15T04:50:25.955Z,17.80
2022-10-15T04:53:12.292Z,18.90
2022-10-15T04:55:40.563Z,17.48
2022-10-15T04:58:09.003Z,17.98
2022-10-15T05:00:40.192Z,17.23
2022-10-15T05:03:26.592Z,16.97
2022-10-15T05:06:02.710Z,16.52
2022-10-15T05:08:35.018Z,17.02
2022-10-15T05:11:26.246Z,15.93
2022-10-15T05:13:58.548Z,15.65
2022-10-15T05:16:32.651Z,14.73
2022-10-15T05:19:08.042Z,17.02
2022-10-15T05:21:41.705Z,19.52
2022-10-15T05:24:14.752Z,24.63
2022-10-15T05:26:53.238Z,18.07
2022-10-15T05:29:21.679Z,14.60
2022-10-15T05:31:56.002Z,12.85
2022-10-15T05:34:27.798Z,10.60
2022-10-15T05:37:01.447Z,10.80
2022-10-15T05:39:34.346Z,10.98
2022-10-15T05:45:57.033Z,9.63
2022-10-15T05:48:43.433Z,10.13
2022-10-15T05:51:23.253Z,9.43
2022-10-15T05:54:03.859Z,10.15
2022-10-15T05:56:34.359Z,8.83
2022-10-15T05:59:15.483Z,9.35
2022-10-15T06:02:28.107Z,7.97
2022-10-15T06:06:03.947Z,7.97
2022-10-15T06:18:24.607Z,12.80
2022-10-15T06:20:56.288Z,11.60
2022-10-15T06:23:27.314Z,10.93
2022-10-15T06:26:07.632Z,9.20
2022-10-15T06:28:37.358Z,9.00
2022-10-15T06:31:07.443Z,8.63
2022-10-15T06:33:36.784Z,8.30
2022-10-15T06:36:10.584Z,8.53
2022-10-15T06:38:54.001Z,8.08
2022-10-15T06:41:32.872Z,8.60
2022-10-15T06:44:03.078Z,9.40
2022-10-15T06:46:30.907Z,8.33
2022-10-15T06:49:06.043Z,8.93
2022-10-15T06:51:36.965Z,8.93
2022-10-15T06:54:05.071Z,8.45
2022-10-15T06:56:33.239Z,9.40
2022-10-15T06:59:01.408Z,9.80
2022-10-15T07:01:29.503Z,9.85
2022-10-15T07:04:05.902Z,7.30
2022-10-15T07:06:46.288Z,8.40
2022-10-15T07:09:22.276Z,8.35
2022-10-15T07:12:00.091Z,8.40
2022-10-15T07:14:41.566Z,8.43
2022-10-15T07:17:14.566Z,8.08
2022-10-15T07:19:46.009Z,7.40
2022-10-15T07:22:17.144Z,6.92
2022-10-15T07:24:48.189Z,7.47
2022-10-15T07:27:19.313Z,7.75
2022-10-15T07:29:47.338Z,7.72
2022-10-15T07:32:15.889Z,7.50
2022-10-15T07:34:46.094Z,7.30
2022-10-15T07:37:16.640Z,7.50
2022-10-15T07:39:44.707Z,7.33
2022-10-15T07:42:16.638Z,8.75
2022-10-15T07:44:48.284Z,8.03
2022-10-15T07:47:17.265Z,7.80
2022-10-15T07:50:55.435Z,7.85
2022-10-15T07:53:27.047Z,8.93
2022-10-15T07:56:24.574Z,7.47
2022-10-15T07:59:03.371Z,7.70
2022-10-15T08:14:48.087Z,7.60
2022-10-15T08:17:16.273Z,8.63
2022-10-15T08:19:44.215Z,7.78
2022-10-15T08:22:12.400Z,8.10
2022-10-15T08:24:40.425Z,7.00
2022-10-15T08:27:08.408Z,7.20
2022-10-15T08:29:39.119Z,6.70
2022-10-15T08:32:07.142Z,6.62
2022-10-15T08:34:39.366Z,6.58
2022-10-15T08:37:08.793Z,6.62
2022-10-15T08:39:37.294Z,7.30
2022-10-15T08:42:16.378Z,7.10
2022-10-15T08:44:51.441Z,7.28
2022-10-15T08:47:40.830Z,7.08
2022-10-15T08:50:31.892Z,6.75
2022-10-15T08:53:00.024Z,8.90
2022-10-15T08:55:37.341Z,6.65
2022-10-15T08:58:13.548Z,7.42
2022-10-15T09:00:52.073Z,7.53
2022-10-15T09:03:51.191Z,6.50
2022-10-15T09:06:34.869Z,6.08
2022-10-15T09:09:20.272Z,6.42
2022-10-15T09:12:08.711Z,7.97
2022-10-15T09:14:41.501Z,5.97
2022-10-15T09:17:24.804Z,5.87
2022-10-15T09:19:56.027Z,6.03
2022-10-15T09:22:29.176Z,5.45
2022-10-15T09:24:57.520Z,5.62
2022-10-15T09:27:39.313Z,5.50
2022-10-15T09:30:34.577Z,6.95
2022-10-15T09:33:22.276Z,5.60
2022-10-15T09:36:30.651Z,5.00
2022-10-15T09:39:04.612Z,5.55
2022-10-15T09:42:08.468Z,5.60
2022-10-15T09:44:40.148Z,5.80
2022-10-15T09:47:27.546Z,5.83
2022-10-15T09:49:57.091Z,11.05
2022-10-15T09:52:47.254Z,5.15
2022-10-15T09:55:52.108Z,5.40
2022-10-15T09:58:45.510Z,6.55
2022-10-15T10:01:20.516Z,6.60
2022-10-15T10:04:10.347Z,6.92
2022-10-15T10:06:54.355Z,6.17
2022-10-15T10:10:05.592Z,5.55
2022-10-15T10:13:38.723Z,5.75
2022-10-15T10:16:15.927Z,6.47
2022-10-15T10:19:14.491Z,5.20
2022-10-15T10:21:50.280Z,4.50
2022-10-15T10:24:31.602Z,4.75
2022-10-15T10:27:01.504Z,5.50
2022-10-15T10:29:55.886Z,4.60
2022-10-15T10:32:40.186Z,5.47
2022-10-15T10:35:27.662Z,5.90
2022-10-15T10:38:36.355Z,5.40
2022-10-15T10:41:24.429Z,5.42
2022-10-15T10:44:12.785Z,5.60
2022-10-15T10:47:01.098Z,7.37
2022-10-15T10:49:57.902Z,5.92
2022-10-15T10:52:37.827Z,6.33
2022-10-15T10:55:18.925Z,5.62
2022-10-15T10:57:57.154Z,4.78
2022-10-15T11:00:43.365Z,4.70
2022-10-15T11:03:39.176Z,5.60
2022-10-15T11:06:24.102Z,5.28
2022-10-15T11:09:25.941Z,5.30
2022-10-15T11:12:02.176Z,5.03
2022-10-15T11:14:55.024Z,5.72
2022-10-15T11:18:22.825Z,4.97
2022-10-15T11:21:45.072Z,4.65
2022-10-15T11:35:40.876Z,4.47
2022-10-15T11:45:24.445Z,5.30
2022-10-15T11:48:24.554Z,4.75
2022-10-15T11:57:44.512Z,4.95
2022-10-15T12:00:52.744Z,5.55
2022-10-15T12:03:48.095Z,5.10
2022-10-15T12:06:25.906Z,4.60
2022-10-15T12:09:09.108Z,4.50
2022-10-15T12:15:52.870Z,4.72
2022-10-15T12:18:57.113Z,4.92
2022-10-15T12:25:00.000Z,4.97
2022-10-15T12:27:37.877Z,4.53
2022-10-15T12:30:16.037Z,4.37
2022-10-15T12:33:01.842Z,4.97
2022-10-15T12:35:41.779Z,4.67
2022-10-15T12:38:33.500Z,4.75
2022-10-15T12:42:03.640Z,5.08
2022-10-15T13:17:45.055Z,4.92
2022-10-15T13:21:47.585Z,4.87
2022-10-15T13:23:51.753Z,4.90
2022-10-15T13:26:26.886Z,4.70
2022-10-15T13:29:02.861Z,5.10
2022-10-15T13:31:36.659Z,10.68
2022-10-15T13:34:13.254Z,6.83
2022-10-15T13:36:42.263Z,5.92
2022-10-15T13:42:24.983Z,4.97
2022-10-15T13:45:03.790Z,4.45
2022-10-15T13:47:37.710Z,5.08
2022-10-15T13:50:34.622Z,5.12
2022-10-15T13:53:33.753Z,5.17
2022-10-15T13:56:35.342Z,5.20
2022-10-15T13:59:18.977Z,5.08
2022-10-15T14:01:58.852Z,5.70
2022-10-15T14:04:29.754Z,5.67
2022-10-15T14:07:08.554Z,5.20
2022-10-15T14:09:40.050Z,5.70
2022-10-15T14:12:10.671Z,5.35
2022-10-15T14:14:44.710Z,5.17
2022-10-15T14:17:25.367Z,5.55
2022-10-15T14:20:25.873Z,5.20
2022-10-15T14:22:35.763Z,5.42
2022-10-15T14:27:48.760Z,5.53
2022-10-15T14:30:27.638Z,5.50
2022-10-15T14:32:55.795Z,4.72
2022-10-15T14:35:34.683Z,5.65
2022-10-15T14:38:13.876Z,5.75
2022-10-15T14:40:49.603Z,5.33
2022-10-15T14:43:18.267Z,6.00
2022-10-15T14:46:00.606Z,6.08
2022-10-15T14:48:41.201Z,5.42
2022-10-15T14:51:23.683Z,5.28
2022-10-15T14:53:53.792Z,5.15
2022-10-15T14:56:30.254Z,5.83
2022-10-15T14:59:00.759Z,5.55
2022-10-15T15:01:39.587Z,5.55
2022-10-15T15:04:34.418Z,5.22
2022-10-15T15:07:04.960Z,6.30
2022-10-15T15:09:33.052Z,6.67
2022-10-15T15:12:03.035Z,6.67
2022-10-15T15:14:30.919Z,6.00
2022-10-15T15:16:58.719Z,6.53
2022-10-15T15:19:26.667Z,9.23
2022-10-15T15:21:55.818Z,24.30
2022-10-15T15:24:23.588Z,33.70
2022-10-15T15:26:51.474Z,51.33
2022-10-15T15:29:19.198Z,67.12
2022-10-15T15:31:48.107Z,78.15
2022-10-15T15:34:15.865Z,65.10
2022-10-15T15:36:43.943Z,53.98
2022-10-15T15:39:11.972Z,45.67
2022-10-15T15:41:39.772Z,44.63
2022-10-15T15:44:24.214Z,46.37
2022-10-15T15:46:53.942Z,45.00
2022-10-15T15:49:21.840Z,49.98
2022-10-15T15:51:52.818Z,53.75
2022-10-15T15:54:20.611Z,48.28
2022-10-15T15:56:51.330Z,48.40
2022-10-15T15:59:19.160Z,43.68
2022-10-15T16:01:47.294Z,40.23
2022-10-15T16:04:16.886Z,45.50
2022-10-15T16:06:50.151Z,50.85
2022-10-15T16:09:21.490Z,48.20
2022-10-15T16:11:52.426Z,36.30
2022-10-15T16:14:20.137Z,31.07
2022-10-15T16:16:48.052Z,29.50
2022-10-15T16:19:15.814Z,27.80
2022-10-15T16:24:23.404Z,24.12
2022-10-15T16:26:51.608Z,22.98
2022-10-15T16:29:19.532Z,21.27
2022-10-15T16:31:49.230Z,21.70
2022-10-15T16:34:21.686Z,21.60
2022-10-15T16:36:49.697Z,20.57
2022-10-15T16:39:17.925Z,22.32
2022-10-15T16:41:45.450Z,23.40
2022-10-15T16:44:13.183Z,25.32
2022-10-15T16:46:41.253Z,23.65
2022-10-15T16:49:09.244Z,22.67
2022-10-15T16:51:39.856Z,21.35
2022-10-15T16:54:07.361Z,19.98
2022-10-15T16:56:35.142Z,20.75
2022-10-15T16:59:02.913Z,20.37
2022-10-15T17:01:30.695Z,19.35
2022-10-15T17:04:00.092Z,21.52
2022-10-15T17:06:30.510Z,19.87
2022-10-15T17:09:04.635Z,22.15
2022-10-15T17:11:40.642Z,19.65
2022-10-15T17:14:11.670Z,21.77
2022-10-15T17:16:53.409Z,23.83
2022-10-15T17:19:35.981Z,26.15
2022-10-15T18:48:17.041Z,16.40
2022-10-15T19:02:25.801Z,13.25
2022-10-15T19:04:57.548Z,15.38
2022-10-15T19:07:31.691Z,18.07
2022-10-15T19:10:11.386Z,13.78
2022-10-15T19:12:44.033Z,13.85
2022-10-15T19:15:12.247Z,13.00
2022-10-15T19:20:46.859Z,16.55
2022-10-15T19:26:39.148Z,15.03
2022-10-15T19:29:09.639Z,15.15
2022-10-15T19:31:41.064Z,18.42
2022-10-15T19:34:13.062Z,22.63
2022-10-15T19:36:47.754Z,26.02
2022-10-15T19:39:20.775Z,26.57
2022-10-15T19:41:51.713Z,24.47
2022-10-15T19:44:27.053Z,20.52
2022-10-15T19:46:59.759Z,23.73
2022-10-15T19:52:30.997Z,22.35
2022-10-15T19:55:21.075Z,24.35
2022-10-15T19:57:51.042Z,21.95
2022-10-15T20:00:21.383Z,19.85
2022-10-15T20:02:52.920Z,19.05
2022-10-15T20:05:28.673Z,18.65
2022-10-15T20:08:00.882Z,17.48
2022-10-15T20:10:28.901Z,22.40
2022-10-15T20:12:59.432Z,17.02
2022-10-15T20:15:33.758Z,16.25
2022-10-15T20:18:03.645Z,15.30
2022-10-15T20:20:36.674Z,14.25
2022-10-15T20:23:09.610Z,14.58
2022-10-15T20:25:42.978Z,13.53
2022-10-15T20:28:13.663Z,13.60
2022-10-15T20:30:44.989Z,13.80
2022-10-15T20:33:15.101Z,13.65
2022-10-15T20:35:42.911Z,13.10
2022-10-15T20:38:11.933Z,11.80
2022-10-15T20:40:40.956Z,14.47
2022-10-15T20:43:09.626Z,13.65
2022-10-15T20:45:44.644Z,13.62
2022-10-15T20:48:21.945Z,13.98
2022-10-15T20:50:58.582Z,13.48
2022-10-15T20:53:27.221Z,15.60
2022-10-15T20:56:01.085Z,14.18
2022-10-15T20:58:44.348Z,14.35
2022-10-15T21:01:33.871Z,16.23
2022-10-15T21:04:06.526Z,23.62
2022-10-15T21:06:35.066Z,27.98
2022-10-15T21:09:12.999Z,25.05
2022-10-15T21:11:47.513Z,20.48
2022-10-15T21:14:16.011Z,17.77
2022-10-15T21:16:43.936Z,15.58
2022-10-15T21:19:16.999Z,14.87
2022-10-15T21:21:55.397Z,13.62
2022-10-15T21:24:42.888Z,12.68
2022-10-15T21:27:27.512Z,12.58
2022-10-15T21:29:58.034Z,11.57
2022-10-15T21:35:14.561Z,12.35
2022-10-15T21:37:43.829Z,12.43
2022-10-15T21:43:44.701Z,13.05
2022-10-15T21:46:14.106Z,12.68
2022-10-15T21:48:43.435Z,12.68
2022-10-15T21:51:14.860Z,13.13
2022-10-15T21:53:43.590Z,13.22
2022-10-15T21:56:12.053Z,13.08
2022-10-15T21:58:41.133Z,12.90
2022-10-15T22:01:24.550Z,12.85
2022-10-15T22:06:32.432Z,12.33
2022-10-15T22:09:02.185Z,11.70
2022-10-15T22:11:35.081Z,11.28
2022-10-15T22:14:09.402Z,10.53
2022-10-15T22:17:25.916Z,10.53
2022-10-15T22:20:14.535Z,10.43
2022-10-15T22:22:45.928Z,11.43
2022-10-15T22:25:14.029Z,11.15
2022-10-15T22:27:42.235Z,13.13
2022-10-15T22:30:10.683Z,12.13
2022-10-15T23:20:20.773Z,10.30
2022-10-15T23:22:51.149Z,9.83
2022-10-15T23:25:24.495Z,9.70
2022-10-15T23:27:57.439Z,10.00
2022-10-15T23:30:29.385Z,11.68
2022-10-15T23:32:57.590Z,13.25
2022-10-15T23:35:25.521Z,13.03
2022-10-15T23:37:53.705Z,13.05
2022-10-15T23:40:21.610Z,11.60
2022-10-15T23:46:22.285Z,10.23
2022-10-15T23:49:27.102Z,10.25
2022-10-15T23:55:57.221Z,10.58
